sensor_id;sensor_type;location;lat;lon;timestamp;P1;durP1;ratioP1;P2;durP2;ratioP2
58238;SDS011;44037;55.638;37.356;2024-01-16T00:01:50;15.63;;;11.48;;
58238;SDS011;44037;55.638;37.356;2024-01-16T00:04:18;15.70;;;11.75;;
58238;SDS011;44037;55.638;37.356;2024-01-16T00:06:45;20.08;;;12.63;;
58238;SDS011;44037;55.638;37.356;2024-01-16T00:09:14;16.85;;;11.93;;
58238;SDS011;44037;55.638;37.356;2024-01-16T00:11:42;16.70;;;12.35;;
58238;SDS011;44037;55.638;37.356;2024-01-16T00:14:09;15.10;;;11.18;;
58238;SDS011;44037;55.638;37.356;2024-01-16T00:16:41;20.20;;;13.38;;
58238;SDS011;44037;55.638;37.356;2024-01-16T00:19:09;19.92;;;13.70;;
58238;SDS011;44037;55.638;37.356;2024-01-16T00:21:38;17.15;;;10.90;;
58238;SDS011;44037;55.638;37.356;2024-01-16T00:24:06;17.80;;;11.48;;
58238;SDS011;44037;55.638;37.356;2024-01-16T00:26:35;17.27;;;11.10;;
58238;SDS011;44037;55.638;37.356;2024-01-16T00:29:02;18.20;;;12.45;;
58238;SDS011;44037;55.638;37.356;2024-01-16T00:31:30;18.98;;;11.52;;
58238;SDS011;44037;55.638;37.356;2024-01-16T00:33:57;18.52;;;12.57;;
58238;SDS011;44037;55.638;37.356;2024-01-16T00:36:25;19.38;;;13.90;;
58238;SDS011;44037;55.638;37.356;2024-01-16T00:38:52;15.45;;;12.38;;
58238;SDS011;44037;55.638;37.356;2024-01-16T00:41:19;18.02;;;12.77;;
58238;SDS011;44037;55.638;37.356;2024-01-16T00:43:48;17.20;;;12.63;;
58238;SDS011;44037;55.638;37.356;2024-01-16T00:46:16;18.63;;;13.45;;
58238;SDS011;44037;55.638;37.356;2024-01-16T00:48:43;17.48;;;12.63;;
58238;SDS011;44037;55.638;37.356;2024-01-16T00:51:10;17.55;;;12.15;;
58238;SDS011;44037;55.638;37.356;2024-01-16T00:53:41;17.98;;;11.93;;
58238;SDS011;44037;55.638;37.356;2024-01-16T00:56:09;18.48;;;11.98;;
58238;SDS011;44037;55.638;37.356;2024-01-16T00:58:38;18.15;;;11.68;;
58238;SDS011;44037;55.638;37.356;2024-01-16T01:01:06;20.27;;;13.00;;
58238;SDS011;44037;55.638;37.356;2024-01-16T01:03:34;18.25;;;12.23;;
58238;SDS011;44037;55.638;37.356;2024-01-16T01:06:02;16.77;;;11.02;;
58238;SDS011;44037;55.638;37.356;2024-01-16T01:08:29;15.43;;;11.27;;
58238;SDS011;44037;55.638;37.356;2024-01-16T01:10:57;18.33;;;11.52;;
58238;SDS011;44037;55.638;37.356;2024-01-16T01:13:26;16.02;;;11.95;;
58238;SDS011;44037;55.638;37.356;2024-01-16T01:15:59;19.25;;;14.05;;
58238;SDS011;44037;55.638;37.356;2024-01-16T01:18:28;16.67;;;11.40;;
58238;SDS011;44037;55.638;37.356;2024-01-16T01:20:56;19.25;;;14.02;;
58238;SDS011;44037;55.638;37.356;2024-01-16T01:23:23;19.05;;;12.95;;
58238;SDS011;44037;55.638;37.356;2024-01-16T01:25:51;17.30;;;12.10;;
58238;SDS011;44037;55.638;37.356;2024-01-16T01:28:18;16.42;;;12.40;;
58238;SDS011;44037;55.638;37.356;2024-01-16T01:30:46;17.02;;;11.38;;
58238;SDS011;44037;55.638;37.356;2024-01-16T01:33:13;20.02;;;12.18;;
58238;SDS011;44037;55.638;37.356;2024-01-16T01:35:42;18.58;;;11.77;;
58238;SDS011;44037;55.638;37.356;2024-01-16T01:38:10;18.27;;;13.25;;
58238;SDS011;44037;55.638;37.356;2024-01-16T01:40:37;17.45;;;12.18;;
58238;SDS011;44037;55.638;37.356;2024-01-16T01:43:17;15.15;;;10.98;;
58238;SDS011;44037;55.638;37.356;2024-01-16T01:45:46;20.17;;;13.20;;
58238;SDS011;44037;55.638;37.356;2024-01-16T01:48:18;17.38;;;13.52;;
58238;SDS011;44037;55.638;37.356;2024-01-16T01:50:47;20.33;;;11.70;;
58238;SDS011;44037;55.638;37.356;2024-01-16T01:53:15;17.73;;;11.43;;
58238;SDS011;44037;55.638;37.356;2024-01-16T01:55:42;18.83;;;13.07;;
58238;SDS011;44037;55.638;37.356;2024-01-16T01:58:10;18.17;;;12.75;;
58238;SDS011;44037;55.638;37.356;2024-01-16T02:00:38;18.27;;;12.80;;
58238;SDS011;44037;55.638;37.356;2024-01-16T02:03:05;15.90;;;12.80;;
58238;SDS011;44037;55.638;37.356;2024-01-16T02:05:33;16.65;;;11.52;;
58238;SDS011;44037;55.638;37.356;2024-01-16T02:08:02;17.42;;;13.02;;
58238;SDS011;44037;55.638;37.356;2024-01-16T02:10:30;19.13;;;12.80;;
58238;SDS011;44037;55.638;37.356;2024-01-16T02:12:58;19.45;;;11.98;;
58238;SDS011;44037;55.638;37.356;2024-01-16T02:15:25;16.45;;;11.27;;
58238;SDS011;44037;55.638;37.356;2024-01-16T02:17:53;19.02;;;11.85;;
58238;SDS011;44037;55.638;37.356;2024-01-16T02:20:40;16.35;;;11.80;;
58238;SDS011;44037;55.638;37.356;2024-01-16T02:23:09;14.88;;;11.48;;
58238;SDS011;44037;55.638;37.356;2024-01-16T02:25:40;18.45;;;12.27;;
58238;SDS011;44037;55.638;37.356;2024-01-16T02:28:08;19.38;;;11.85;;
58238;SDS011;44037;55.638;37.356;2024-01-16T02:30:35;17.00;;;12.40;;
58238;SDS011;44037;55.638;37.356;2024-01-16T02:33:03;18.40;;;12.15;;
58238;SDS011;44037;55.638;37.356;2024-01-16T02:35:31;17.90;;;11.45;;
58238;SDS011;44037;55.638;37.356;2024-01-16T02:37:59;17.27;;;11.65;;
58238;SDS011;44037;55.638;37.356;2024-01-16T02:40:27;18.98;;;12.65;;
58238;SDS011;44037;55.638;37.356;2024-01-16T02:42:56;17.20;;;11.68;;
58238;SDS011;44037;55.638;37.356;2024-01-16T02:45:23;16.77;;;12.95;;
58238;SDS011;44037;55.638;37.356;2024-01-16T02:47:50;15.40;;;10.63;;
58238;SDS011;44037;55.638;37.356;2024-01-16T02:50:18;18.17;;;11.95;;
58238;SDS011;44037;55.638;37.356;2024-01-16T02:52:46;16.73;;;11.35;;
58238;SDS011;44037;55.638;37.356;2024-01-16T02:55:14;15.30;;;10.13;;
58238;SDS011;44037;55.638;37.356;2024-01-16T02:57:41;18.75;;;11.60;;
58238;SDS011;44037;55.638;37.356;2024-01-16T03:00:11;17.27;;;11.90;;
58238;SDS011;44037;55.638;37.356;2024-01-16T03:02:39;15.45;;;10.80;;
58238;SDS011;44037;55.638;37.356;2024-01-16T03:05:07;17.10;;;10.98;;
58238;SDS011;44037;55.638;37.356;2024-01-16T03:07:35;18.67;;;11.75;;
58238;SDS011;44037;55.638;37.356;2024-01-16T03:10:02;13.90;;;10.93;;
58238;SDS011;44037;55.638;37.356;2024-01-16T03:12:30;17.00;;;10.82;;
58238;SDS011;44037;55.638;37.356;2024-01-16T03:14:57;16.95;;;12.02;;
58238;SDS011;44037;55.638;37.356;2024-01-16T03:17:26;17.63;;;13.20;;
58238;SDS011;44037;55.638;37.356;2024-01-16T03:19:53;16.25;;;11.40;;
58238;SDS011;44037;55.638;37.356;2024-01-16T03:22:21;16.45;;;12.13;;
58238;SDS011;44037;55.638;37.356;2024-01-16T03:24:49;17.58;;;12.82;;
58238;SDS011;44037;55.638;37.356;2024-01-16T03:27:17;18.52;;;12.60;;
58238;SDS011;44037;55.638;37.356;2024-01-16T03:29:45;17.20;;;13.10;;
58238;SDS011;44037;55.638;37.356;2024-01-16T03:32:12;16.38;;;12.35;;
58238;SDS011;44037;55.638;37.356;2024-01-16T03:34:41;19.17;;;11.80;;
58238;SDS011;44037;55.638;37.356;2024-01-16T03:37:08;18.17;;;12.30;;
58238;SDS011;44037;55.638;37.356;2024-01-16T03:39:36;16.55;;;12.10;;
58238;SDS011;44037;55.638;37.356;2024-01-16T03:42:03;19.60;;;13.15;;
58238;SDS011;44037;55.638;37.356;2024-01-16T03:44:31;18.45;;;12.55;;
58238;SDS011;44037;55.638;37.356;2024-01-16T03:46:58;20.25;;;13.88;;
58238;SDS011;44037;55.638;37.356;2024-01-16T03:49:26;18.92;;;12.82;;
58238;SDS011;44037;55.638;37.356;2024-01-16T03:51:55;22.85;;;14.15;;
58238;SDS011;44037;55.638;37.356;2024-01-16T03:54:22;21.45;;;13.23;;
58238;SDS011;44037;55.638;37.356;2024-01-16T03:56:51;19.70;;;13.43;;
58238;SDS011;44037;55.638;37.356;2024-01-16T03:59:18;20.38;;;12.95;;
58238;SDS011;44037;55.638;37.356;2024-01-16T04:01:45;17.80;;;11.80;;
58238;SDS011;44037;55.638;37.356;2024-01-16T04:04:14;18.27;;;13.90;;
58238;SDS011;44037;55.638;37.356;2024-01-16T04:06:41;17.52;;;13.35;;
58238;SDS011;44037;55.638;37.356;2024-01-16T04:09:10;23.55;;;13.18;;
58238;SDS011;44037;55.638;37.356;2024-01-16T04:11:39;20.02;;;14.93;;
58238;SDS011;44037;55.638;37.356;2024-01-16T04:14:06;22.75;;;13.88;;
58238;SDS011;44037;55.638;37.356;2024-01-16T04:16:34;21.52;;;15.75;;
58238;SDS011;44037;55.638;37.356;2024-01-16T04:19:01;23.13;;;13.40;;
58238;SDS011;44037;55.638;37.356;2024-01-16T04:21:29;24.60;;;14.63;;
58238;SDS011;44037;55.638;37.356;2024-01-16T04:23:56;19.85;;;13.88;;
58238;SDS011;44037;55.638;37.356;2024-01-16T04:26:25;24.00;;;15.63;;
58238;SDS011;44037;55.638;37.356;2024-01-16T04:28:52;23.85;;;14.77;;
58238;SDS011;44037;55.638;37.356;2024-01-16T04:31:20;20.55;;;13.85;;
58238;SDS011;44037;55.638;37.356;2024-01-16T04:33:47;19.80;;;14.77;;
58238;SDS011;44037;55.638;37.356;2024-01-16T04:36:15;22.60;;;14.27;;
58238;SDS011;44037;55.638;37.356;2024-01-16T04:38:42;20.00;;;14.25;;
58238;SDS011;44037;55.638;37.356;2024-01-16T04:41:10;19.20;;;12.75;;
58238;SDS011;44037;55.638;37.356;2024-01-16T04:43:39;20.83;;;14.80;;
58238;SDS011;44037;55.638;37.356;2024-01-16T04:46:06;20.50;;;14.02;;
58238;SDS011;44037;55.638;37.356;2024-01-16T04:48:34;23.30;;;14.45;;
58238;SDS011;44037;55.638;37.356;2024-01-16T04:51:02;20.23;;;13.85;;
58238;SDS011;44037;55.638;37.356;2024-01-16T04:53:29;22.90;;;14.38;;
58238;SDS011;44037;55.638;37.356;2024-01-16T04:55:57;24.38;;;15.07;;
58238;SDS011;44037;55.638;37.356;2024-01-16T04:58:24;23.33;;;16.15;;
58238;SDS011;44037;55.638;37.356;2024-01-16T05:00:53;23.17;;;15.23;;
58238;SDS011;44037;55.638;37.356;2024-01-16T05:03:21;23.90;;;15.35;;
58238;SDS011;44037;55.638;37.356;2024-01-16T05:05:48;27.00;;;16.83;;
58238;SDS011;44037;55.638;37.356;2024-01-16T05:08:15;22.63;;;14.95;;
58238;SDS011;44037;55.638;37.356;2024-01-16T05:10:43;23.50;;;15.90;;
58238;SDS011;44037;55.638;37.356;2024-01-16T05:13:14;23.92;;;15.35;;
58238;SDS011;44037;55.638;37.356;2024-01-16T05:15:41;22.52;;;15.38;;
58238;SDS011;44037;55.638;37.356;2024-01-16T05:18:10;23.50;;;15.27;;
58238;SDS011;44037;55.638;37.356;2024-01-16T05:20:37;24.92;;;16.10;;
58238;SDS011;44037;55.638;37.356;2024-01-16T05:23:05;22.20;;;15.60;;
58238;SDS011;44037;55.638;37.356;2024-01-16T05:25:32;21.67;;;15.15;;
58238;SDS011;44037;55.638;37.356;2024-01-16T05:28:00;25.00;;;16.77;;
58238;SDS011;44037;55.638;37.356;2024-01-16T05:30:27;26.98;;;17.45;;
58238;SDS011;44037;55.638;37.356;2024-01-16T05:32:55;25.05;;;14.95;;
58238;SDS011;44037;55.638;37.356;2024-01-16T05:35:27;23.05;;;14.18;;
58238;SDS011;44037;55.638;37.356;2024-01-16T05:37:55;24.27;;;16.02;;
58238;SDS011;44037;55.638;37.356;2024-01-16T05:40:24;24.98;;;17.48;;
58238;SDS011;44037;55.638;37.356;2024-01-16T05:42:52;24.83;;;16.40;;
58238;SDS011;44037;55.638;37.356;2024-01-16T05:45:19;20.35;;;15.38;;
58238;SDS011;44037;55.638;37.356;2024-01-16T05:47:47;23.35;;;14.73;;
58238;SDS011;44037;55.638;37.356;2024-01-16T05:50:15;24.13;;;15.90;;
58238;SDS011;44037;55.638;37.356;2024-01-16T05:52:45;23.92;;;16.98;;
58238;SDS011;44037;55.638;37.356;2024-01-16T05:55:13;26.15;;;16.33;;
58238;SDS011;44037;55.638;37.356;2024-01-16T05:57:40;23.33;;;15.48;;
58238;SDS011;44037;55.638;37.356;2024-01-16T06:00:09;22.42;;;14.77;;
58238;SDS011;44037;55.638;37.356;2024-01-16T06:02:37;22.67;;;15.93;;
58238;SDS011;44037;55.638;37.356;2024-01-16T06:05:04;25.15;;;14.05;;
58238;SDS011;44037;55.638;37.356;2024-01-16T06:07:33;27.33;;;15.95;;
58238;SDS011;44037;55.638;37.356;2024-01-16T06:10:00;23.75;;;14.50;;
58238;SDS011;44037;55.638;37.356;2024-01-16T06:12:29;25.05;;;16.13;;
58238;SDS011;44037;55.638;37.356;2024-01-16T06:14:57;22.67;;;16.17;;
58238;SDS011;44037;55.638;37.356;2024-01-16T06:17:24;24.25;;;15.95;;
58238;SDS011;44037;55.638;37.356;2024-01-16T06:19:52;24.23;;;15.27;;
58238;SDS011;44037;55.638;37.356;2024-01-16T06:22:19;26.45;;;17.35;;
58238;SDS011;44037;55.638;37.356;2024-01-16T06:24:47;24.63;;;17.27;;
58238;SDS011;44037;55.638;37.356;2024-01-16T06:27:16;24.98;;;15.95;;
58238;SDS011;44037;55.638;37.356;2024-01-16T06:29:45;23.92;;;15.52;;
58238;SDS011;44037;55.638;37.356;2024-01-16T06:32:13;25.90;;;17.58;;
58238;SDS011;44037;55.638;37.356;2024-01-16T06:34:40;24.92;;;16.10;;
58238;SDS011;44037;55.638;37.356;2024-01-16T06:37:07;25.63;;;16.50;;
58238;SDS011;44037;55.638;37.356;2024-01-16T06:39:35;24.02;;;15.93;;
58238;SDS011;44037;55.638;37.356;2024-01-16T06:42:03;19.58;;;13.20;;
58238;SDS011;44037;55.638;37.356;2024-01-16T06:44:33;24.88;;;14.77;;
58238;SDS011;44037;55.638;37.356;2024-01-16T06:47:01;25.13;;;16.63;;
58238;SDS011;44037;55.638;37.356;2024-01-16T06:49:28;21.25;;;13.38;;
58238;SDS011;44037;55.638;37.356;2024-01-16T06:51:55;24.88;;;14.85;;
58238;SDS011;44037;55.638;37.356;2024-01-16T06:54:23;22.25;;;14.77;;
58238;SDS011;44037;55.638;37.356;2024-01-16T06:56:51;24.10;;;16.10;;
58238;SDS011;44037;55.638;37.356;2024-01-16T06:59:18;22.08;;;13.68;;
58238;SDS011;44037;55.638;37.356;2024-01-16T07:01:48;23.27;;;15.82;;
58238;SDS011;44037;55.638;37.356;2024-01-16T07:04:17;20.70;;;12.73;;
58238;SDS011;44037;55.638;37.356;2024-01-16T07:06:44;21.45;;;14.68;;
58238;SDS011;44037;55.638;37.356;2024-01-16T07:09:12;24.42;;;15.40;;
58238;SDS011;44037;55.638;37.356;2024-01-16T07:11:39;25.63;;;15.80;;
58238;SDS011;44037;55.638;37.356;2024-01-16T07:14:08;23.75;;;14.65;;
58238;SDS011;44037;55.638;37.356;2024-01-16T07:16:36;21.80;;;14.35;;
58238;SDS011;44037;55.638;37.356;2024-01-16T07:19:05;23.08;;;14.38;;
58238;SDS011;44037;55.638;37.356;2024-01-16T07:21:33;23.45;;;14.55;;
58238;SDS011;44037;55.638;37.356;2024-01-16T07:24:01;23.58;;;15.20;;
58238;SDS011;44037;55.638;37.356;2024-01-16T07:26:29;24.73;;;14.15;;
58238;SDS011;44037;55.638;37.356;2024-01-16T07:28:56;19.02;;;13.98;;
58238;SDS011;44037;55.638;37.356;2024-01-16T07:31:25;21.55;;;13.32;;
58238;SDS011;44037;55.638;37.356;2024-01-16T07:33:52;18.80;;;12.40;;
58238;SDS011;44037;55.638;37.356;2024-01-16T07:36:21;23.15;;;13.82;;
58238;SDS011;44037;55.638;37.356;2024-01-16T07:38:49;19.17;;;13.07;;
58238;SDS011;44037;55.638;37.356;2024-01-16T07:41:16;21.10;;;12.57;;
58238;SDS011;44037;55.638;37.356;2024-01-16T07:43:43;19.75;;;12.80;;
58238;SDS011;44037;55.638;37.356;2024-01-16T07:46:11;21.23;;;13.40;;
58238;SDS011;44037;55.638;37.356;2024-01-16T07:48:39;19.77;;;12.85;;
58238;SDS011;44037;55.638;37.356;2024-01-16T07:51:06;21.13;;;13.13;;
58238;SDS011;44037;55.638;37.356;2024-01-16T07:53:35;19.55;;;13.18;;
58238;SDS011;44037;55.638;37.356;2024-01-16T07:56:03;20.90;;;14.10;;
58238;SDS011;44037;55.638;37.356;2024-01-16T07:58:31;22.05;;;12.23;;
58238;SDS011;44037;55.638;37.356;2024-01-16T08:00:58;20.60;;;12.90;;
58238;SDS011;44037;55.638;37.356;2024-01-16T08:03:25;19.17;;;13.73;;
58238;SDS011;44037;55.638;37.356;2024-01-16T08:05:53;20.80;;;13.75;;
58238;SDS011;44037;55.638;37.356;2024-01-16T08:08:21;22.15;;;13.35;;
58238;SDS011;44037;55.638;37.356;2024-01-16T08:10:50;18.05;;;12.27;;
58238;SDS011;44037;55.638;37.356;2024-01-16T08:13:17;18.35;;;12.07;;
58238;SDS011;44037;55.638;37.356;2024-01-16T08:15:45;16.50;;;11.60;;
58238;SDS011;44037;55.638;37.356;2024-01-16T08:18:12;18.90;;;12.82;;
58238;SDS011;44037;55.638;37.356;2024-01-16T08:20:43;18.30;;;10.80;;
58238;SDS011;44037;55.638;37.356;2024-01-16T08:23:10;15.68;;;10.68;;
58238;SDS011;44037;55.638;37.356;2024-01-16T08:25:37;19.23;;;12.05;;
58238;SDS011;44037;55.638;37.356;2024-01-16T08:28:06;14.65;;;11.00;;
58238;SDS011;44037;55.638;37.356;2024-01-16T08:30:34;16.60;;;11.23;;
58238;SDS011;44037;55.638;37.356;2024-01-16T08:33:03;17.42;;;10.85;;
58238;SDS011;44037;55.638;37.356;2024-01-16T08:35:31;18.67;;;10.60;;
58238;SDS011;44037;55.638;37.356;2024-01-16T08:37:58;17.20;;;11.27;;
58238;SDS011;44037;55.638;37.356;2024-01-16T08:40:26;18.08;;;12.50;;
58238;SDS011;44037;55.638;37.356;2024-01-16T08:42:54;15.98;;;11.00;;
58238;SDS011;44037;55.638;37.356;2024-01-16T08:45:22;15.18;;;11.18;;
58238;SDS011;44037;55.638;37.356;2024-01-16T08:47:51;20.35;;;12.32;;
58238;SDS011;44037;55.638;37.356;2024-01-16T08:50:18;16.92;;;12.27;;
58238;SDS011;44037;55.638;37.356;2024-01-16T08:52:46;22.52;;;13.80;;
58238;SDS011;44037;55.638;37.356;2024-01-16T08:55:14;17.83;;;12.52;;
58238;SDS011;44037;55.638;37.356;2024-01-16T08:57:42;16.77;;;11.43;;
58238;SDS011;44037;55.638;37.356;2024-01-16T09:00:09;19.38;;;11.20;;
58238;SDS011;44037;55.638;37.356;2024-01-16T09:02:39;16.65;;;12.32;;
58238;SDS011;44037;55.638;37.356;2024-01-16T09:05:07;19.75;;;12.93;;
58238;SDS011;44037;55.638;37.356;2024-01-16T09:07:34;17.15;;;11.15;;
58238;SDS011;44037;55.638;37.356;2024-01-16T09:10:03;18.48;;;12.32;;
58238;SDS011;44037;55.638;37.356;2024-01-16T09:12:31;20.48;;;13.50;;
58238;SDS011;44037;55.638;37.356;2024-01-16T09:14:59;18.50;;;12.88;;
58238;SDS011;44037;55.638;37.356;2024-01-16T09:17:28;19.98;;;12.95;;
58238;SDS011;44037;55.638;37.356;2024-01-16T09:19:56;19.48;;;14.18;;
58238;SDS011;44037;55.638;37.356;2024-01-16T09:22:24;18.02;;;12.40;;
58238;SDS011;44037;55.638;37.356;2024-01-16T09:24:51;20.63;;;13.35;;
58238;SDS011;44037;55.638;37.356;2024-01-16T09:27:19;17.92;;;12.68;;
58238;SDS011;44037;55.638;37.356;2024-01-16T09:29:46;18.58;;;13.50;;
58238;SDS011;44037;55.638;37.356;2024-01-16T09:32:14;18.23;;;11.70;;
58238;SDS011;44037;55.638;37.356;2024-01-16T09:34:42;19.60;;;13.10;;
58238;SDS011;44037;55.638;37.356;2024-01-16T09:37:11;23.38;;;12.85;;
58238;SDS011;44037;55.638;37.356;2024-01-16T09:39:40;21.17;;;13.45;;
58238;SDS011;44037;55.638;37.356;2024-01-16T09:42:08;17.35;;;11.82;;
58238;SDS011;44037;55.638;37.356;2024-01-16T09:44:36;19.45;;;13.27;;
58238;SDS011;44037;55.638;37.356;2024-01-16T09:47:04;19.55;;;13.02;;
58238;SDS011;44037;55.638;37.356;2024-01-16T09:49:33;16.63;;;12.63;;
58238;SDS011;44037;55.638;37.356;2024-01-16T09:52:00;16.05;;;12.30;;
58238;SDS011;44037;55.638;37.356;2024-01-16T09:54:30;19.73;;;13.02;;
58238;SDS011;44037;55.638;37.356;2024-01-16T09:56:58;21.15;;;13.00;;
58238;SDS011;44037;55.638;37.356;2024-01-16T09:59:26;18.75;;;12.23;;
58238;SDS011;44037;55.638;37.356;2024-01-16T10:01:55;19.10;;;13.63;;
58238;SDS011;44037;55.638;37.356;2024-01-16T10:04:23;19.02;;;13.20;;
58238;SDS011;44037;55.638;37.356;2024-01-16T10:06:53;19.77;;;13.30;;
58238;SDS011;44037;55.638;37.356;2024-01-16T10:09:23;19.23;;;11.73;;
58238;SDS011;44037;55.638;37.356;2024-01-16T10:11:52;17.40;;;12.05;;
58238;SDS011;44037;55.638;37.356;2024-01-16T10:14:20;19.67;;;13.85;;
58238;SDS011;44037;55.638;37.356;2024-01-16T10:17:00;19.23;;;13.75;;
58238;SDS011;44037;55.638;37.356;2024-01-16T10:19:31;17.05;;;12.20;;
58238;SDS011;44037;55.638;37.356;2024-01-16T10:22:01;19.73;;;12.18;;
58238;SDS011;44037;55.638;37.356;2024-01-16T10:24:29;17.88;;;12.50;;
58238;SDS011;44037;55.638;37.356;2024-01-16T10:27:00;20.80;;;12.30;;
58238;SDS011;44037;55.638;37.356;2024-01-16T10:29:29;20.85;;;12.85;;
58238;SDS011;44037;55.638;37.356;2024-01-16T10:31:57;17.48;;;12.30;;
58238;SDS011;44037;55.638;37.356;2024-01-16T10:34:25;17.35;;;13.13;;
58238;SDS011;44037;55.638;37.356;2024-01-16T10:36:58;19.45;;;13.18;;
58238;SDS011;44037;55.638;37.356;2024-01-16T10:39:26;18.88;;;11.68;;
58238;SDS011;44037;55.638;37.356;2024-01-16T10:41:54;21.13;;;14.15;;
58238;SDS011;44037;55.638;37.356;2024-01-16T10:44:23;18.92;;;13.45;;
58238;SDS011;44037;55.638;37.356;2024-01-16T10:46:57;20.98;;;11.55;;
58238;SDS011;44037;55.638;37.356;2024-01-16T10:49:37;19.98;;;13.32;;
58238;SDS011;44037;55.638;37.356;2024-01-16T10:52:07;20.55;;;13.55;;
58238;SDS011;44037;55.638;37.356;2024-01-16T10:54:39;23.17;;;13.23;;
58238;SDS011;44037;55.638;37.356;2024-01-16T10:57:10;22.95;;;14.00;;
58238;SDS011;44037;55.638;37.356;2024-01-16T10:59:42;18.75;;;11.95;;
58238;SDS011;44037;55.638;37.356;2024-01-16T11:02:17;19.55;;;11.93;;
58238;SDS011;44037;55.638;37.356;2024-01-16T11:04:48;18.60;;;11.15;;
58238;SDS011;44037;55.638;37.356;2024-01-16T11:07:16;20.15;;;12.40;;
58238;SDS011;44037;55.638;37.356;2024-01-16T11:09:44;20.58;;;14.18;;
58238;SDS011;44037;55.638;37.356;2024-01-16T11:12:13;21.98;;;13.90;;
58238;SDS011;44037;55.638;37.356;2024-01-16T11:14:47;18.98;;;13.23;;
58238;SDS011;44037;55.638;37.356;2024-01-16T11:17:18;19.23;;;13.00;;
58238;SDS011;44037;55.638;37.356;2024-01-16T11:19:46;18.23;;;11.52;;
58238;SDS011;44037;55.638;37.356;2024-01-16T11:22:15;17.45;;;11.52;;
58238;SDS011;44037;55.638;37.356;2024-01-16T11:24:44;19.38;;;12.98;;
58238;SDS011;44037;55.638;37.356;2024-01-16T11:27:21;20.48;;;12.68;;
58238;SDS011;44037;55.638;37.356;2024-01-16T11:29:51;17.02;;;12.27;;
58238;SDS011;44037;55.638;37.356;2024-01-16T11:32:32;18.42;;;12.85;;
58238;SDS011;44037;55.638;37.356;2024-01-16T11:35:01;18.75;;;12.13;;
58238;SDS011;44037;55.638;37.356;2024-01-16T11:37:30;19.80;;;14.13;;
58238;SDS011;44037;55.638;37.356;2024-01-16T11:42:47;20.25;;;12.63;;
58238;SDS011;44037;55.638;37.356;2024-01-16T11:48:19;17.48;;;12.07;;
58238;SDS011;44037;55.638;37.356;2024-01-16T11:50:47;21.80;;;12.80;;
58238;SDS011;44037;55.638;37.356;2024-01-16T11:56:15;17.15;;;13.18;;
58238;SDS011;44037;55.638;37.356;2024-01-16T11:59:02;19.15;;;12.18;;
58238;SDS011;44037;55.638;37.356;2024-01-16T12:01:48;18.10;;;11.75;;
58238;SDS011;44037;55.638;37.356;2024-01-16T12:04:19;16.10;;;11.20;;
58238;SDS011;44037;55.638;37.356;2024-01-16T12:06:56;19.75;;;11.98;;
58238;SDS011;44037;55.638;37.356;2024-01-16T12:09:25;20.33;;;14.18;;
58238;SDS011;44037;55.638;37.356;2024-01-16T12:11:58;22.58;;;12.85;;
58238;SDS011;44037;55.638;37.356;2024-01-16T12:14:27;20.20;;;12.18;;
58238;SDS011;44037;55.638;37.356;2024-01-16T12:17:09;19.23;;;12.15;;
58238;SDS011;44037;55.638;37.356;2024-01-16T12:19:37;17.35;;;12.05;;
58238;SDS011;44037;55.638;37.356;2024-01-16T12:22:08;18.80;;;13.38;;
58238;SDS011;44037;55.638;37.356;2024-01-16T12:24:36;17.45;;;12.38;;
58238;SDS011;44037;55.638;37.356;2024-01-16T12:27:04;17.25;;;11.98;;
58238;SDS011;44037;55.638;37.356;2024-01-16T12:29:31;18.83;;;11.80;;
58238;SDS011;44037;55.638;37.356;2024-01-16T12:32:07;17.90;;;11.93;;
58238;SDS011;44037;55.638;37.356;2024-01-16T12:34:43;17.27;;;12.70;;
58238;SDS011;44037;55.638;37.356;2024-01-16T12:37:12;17.52;;;11.77;;
58238;SDS011;44037;55.638;37.356;2024-01-16T12:39:40;17.30;;;11.65;;
58238;SDS011;44037;55.638;37.356;2024-01-16T12:42:09;16.15;;;11.35;;
58238;SDS011;44037;55.638;37.356;2024-01-16T12:44:38;20.75;;;13.63;;
58238;SDS011;44037;55.638;37.356;2024-01-16T12:47:06;18.52;;;12.60;;
58238;SDS011;44037;55.638;37.356;2024-01-16T12:49:41;17.58;;;11.93;;
58238;SDS011;44037;55.638;37.356;2024-01-16T12:52:19;17.13;;;12.05;;
58238;SDS011;44037;55.638;37.356;2024-01-16T12:54:47;17.60;;;12.23;;
58238;SDS011;44037;55.638;37.356;2024-01-16T12:57:19;18.50;;;11.38;;
58238;SDS011;44037;55.638;37.356;2024-01-16T12:59:47;19.77;;;11.88;;
58238;SDS011;44037;55.638;37.356;2024-01-16T13:02:21;15.85;;;12.50;;
58238;SDS011;44037;55.638;37.356;2024-01-16T13:04:58;17.92;;;11.40;;
58238;SDS011;44037;55.638;37.356;2024-01-16T13:07:30;16.67;;;11.02;;
58238;SDS011;44037;55.638;37.356;2024-01-16T13:10:08;17.63;;;11.48;;
58238;SDS011;44037;55.638;37.356;2024-01-16T13:12:37;21.20;;;13.18;;
58238;SDS011;44037;55.638;37.356;2024-01-16T13:15:05;16.42;;;11.40;;
58238;SDS011;44037;55.638;37.356;2024-01-16T13:17:33;18.80;;;12.20;;
58238;SDS011;44037;55.638;37.356;2024-01-16T13:20:03;19.52;;;12.77;;
58238;SDS011;44037;55.638;37.356;2024-01-16T13:22:35;16.65;;;10.85;;
58238;SDS011;44037;55.638;37.356;2024-01-16T13:25:03;17.80;;;12.18;;
58238;SDS011;44037;55.638;37.356;2024-01-16T13:27:31;18.20;;;12.30;;
58238;SDS011;44037;55.638;37.356;2024-01-16T13:29:58;16.98;;;10.80;;
58238;SDS011;44037;55.638;37.356;2024-01-16T13:32:26;18.42;;;12.77;;
58238;SDS011;44037;55.638;37.356;2024-01-16T13:34:54;18.77;;;11.65;;
58238;SDS011;44037;55.638;37.356;2024-01-16T13:37:23;16.77;;;12.65;;
58238;SDS011;44037;55.638;37.356;2024-01-16T13:39:51;16.27;;;11.65;;
58238;SDS011;44037;55.638;37.356;2024-01-16T13:42:19;18.33;;;12.57;;
58238;SDS011;44037;55.638;37.356;2024-01-16T13:44:47;18.95;;;11.52;;
58238;SDS011;44037;55.638;37.356;2024-01-16T13:47:15;21.10;;;12.80;;
58238;SDS011;44037;55.638;37.356;2024-01-16T13:49:44;18.95;;;12.05;;
58238;SDS011;44037;55.638;37.356;2024-01-16T13:52:15;18.25;;;12.20;;
58238;SDS011;44037;55.638;37.356;2024-01-16T13:54:45;18.25;;;11.23;;
58238;SDS011;44037;55.638;37.356;2024-01-16T13:57:12;17.58;;;10.63;;
58238;SDS011;44037;55.638;37.356;2024-01-16T13:59:40;21.38;;;13.75;;
58238;SDS011;44037;55.638;37.356;2024-01-16T14:02:08;18.08;;;12.88;;
58238;SDS011;44037;55.638;37.356;2024-01-16T14:04:36;17.92;;;12.38;;
58238;SDS011;44037;55.638;37.356;2024-01-16T14:07:04;19.88;;;12.13;;
58238;SDS011;44037;55.638;37.356;2024-01-16T14:09:32;18.35;;;12.75;;
58238;SDS011;44037;55.638;37.356;2024-01-16T14:12:02;16.83;;;13.10;;
58238;SDS011;44037;55.638;37.356;2024-01-16T14:14:31;25.67;;;12.55;;
58238;SDS011;44037;55.638;37.356;2024-01-16T14:16:59;21.42;;;14.02;;
58238;SDS011;44037;55.638;37.356;2024-01-16T14:19:27;18.15;;;13.57;;
58238;SDS011;44037;55.638;37.356;2024-01-16T14:21:55;21.10;;;13.18;;
58238;SDS011;44037;55.638;37.356;2024-01-16T14:24:25;20.45;;;13.15;;
58238;SDS011;44037;55.638;37.356;2024-01-16T14:26:52;19.85;;;12.90;;